createdAt,value
2023-05-12T00:00:51.607Z,3.10
2023-05-12T00:03:54.426Z,2.85
2023-05-12T00:06:56.820Z,2.95
2023-05-12T00:09:59.054Z,3.33
2023-05-12T00:13:01.534Z,3.00
2023-05-12T00:16:04.414Z,2.67
2023-05-12T00:19:07.020Z,2.90
2023-05-12T00:22:10.004Z,2.70
2023-05-12T00:25:12.305Z,2.72
2023-05-12T00:28:14.926Z,2.75
2023-05-12T00:31:17.405Z,2.80
2023-05-12T00:34:19.722Z,3.08
2023-05-12T00:37:21.972Z,3.13
2023-05-12T00:40:24.262Z,2.65
2023-05-12T00:43:26.639Z,3.05
2023-05-12T00:46:29.067Z,2.93
2023-05-12T00:49:31.868Z,3.00
2023-05-12T00:52:34.678Z,3.10
2023-05-12T00:55:37.480Z,3.13
2023-05-12T00:58:40.474Z,3.17
2023-05-12T01:01:46.063Z,3.27
2023-05-12T01:04:49.502Z,3.45
2023-05-12T01:07:52.337Z,3.40
2023-05-12T01:10:54.765Z,3.60
2023-05-12T01:13:57.187Z,3.60
2023-05-12T01:17:03.648Z,3.30
2023-05-12T01:20:08.377Z,4.25
2023-05-12T01:23:13.840Z,3.63
2023-05-12T01:26:16.634Z,4.40
2023-05-12T01:29:20.633Z,3.30
2023-05-12T01:32:23.888Z,3.30
2023-05-12T01:35:27.227Z,3.35
2023-05-12T01:38:35.090Z,3.65
2023-05-12T01:41:37.520Z,3.40
2023-05-12T01:44:40.046Z,3.22
2023-05-12T01:47:42.496Z,3.57
2023-05-12T01:50:45.740Z,3.28
2023-05-12T01:53:52.739Z,3.55
2023-05-12T01:56:55.420Z,3.10
2023-05-12T01:59:57.975Z,3.75
2023-05-12T02:03:00.470Z,3.33
2023-05-12T02:06:03.007Z,3.65
2023-05-12T02:09:05.563Z,3.70
2023-05-12T02:12:08.288Z,3.40
2023-05-12T02:15:10.843Z,3.13
2023-05-12T02:18:17.686Z,3.83
2023-05-12T02:21:20.561Z,3.95
2023-05-12T02:24:23.207Z,3.47
2023-05-12T02:27:25.897Z,3.28
2023-05-12T02:30:28.727Z,3.33
2023-05-12T02:33:31.352Z,2.97
2023-05-12T02:36:36.836Z,2.65
2023-05-12T02:39:39.114Z,3.00
2023-05-12T02:42:41.514Z,3.30
2023-05-12T02:45:44.070Z,3.72
2023-05-12T02:48:46.376Z,2.53
2023-05-12T02:51:49.165Z,3.50
2023-05-12T02:54:52.018Z,2.88
2023-05-12T02:57:54.331Z,3.00
2023-05-12T03:01:09.344Z,3.50
2023-05-12T03:04:12.890Z,3.50
2023-05-12T03:07:15.266Z,3.80
2023-05-12T03:10:19.190Z,3.22
2023-05-12T03:13:22.472Z,3.30
2023-05-12T03:16:25.087Z,3.53
2023-05-12T03:19:30.292Z,4.07
2023-05-12T03:22:32.704Z,4.18
2023-05-12T03:25:35.339Z,5.43
2023-05-12T03:28:37.722Z,3.72
2023-05-12T03:31:40.347Z,3.67
2023-05-12T03:34:42.654Z,3.60
2023-05-12T03:37:45.031Z,4.22
2023-05-12T03:40:52.617Z,3.22
2023-05-12T03:43:55.140Z,4.00
2023-05-12T03:46:57.627Z,3.38
2023-05-12T03:50:01.564Z,3.70
2023-05-12T03:53:04.725Z,3.65
2023-05-12T03:56:07.324Z,3.88
2023-05-12T03:59:11.999Z,3.83
2023-05-12T04:02:14.636Z,4.38
2023-05-12T04:05:17.179Z,3.90
2023-05-12T04:08:19.431Z,3.80
2023-05-12T04:11:21.690Z,4.07
2023-05-12T04:14:31.799Z,4.03
2023-05-12T04:17:41.982Z,4.32
2023-05-12T04:20:44.613Z,3.57
2023-05-12T04:23:46.899Z,4.32
2023-05-12T04:26:49.282Z,3.63
2023-05-12T04:29:52.908Z,3.75
2023-05-12T04:32:56.587Z,4.10
2023-05-12T04:35:59.216Z,3.67
2023-05-12T04:39:01.726Z,3.83
2023-05-12T04:42:04.649Z,3.85
2023-05-12T04:45:09.638Z,3.78
2023-05-12T04:48:12.222Z,3.72
2023-05-12T04:51:24.123Z,3.53
2023-05-12T04:54:26.468Z,3.65
2023-05-12T04:57:29.147Z,4.07
2023-05-12T05:00:31.792Z,3.92
2023-05-12T05:03:35.030Z,3.60
2023-05-12T05:06:37.680Z,3.63
2023-05-12T05:09:44.308Z,4.00
2023-05-12T05:12:46.591Z,3.45
2023-05-12T05:15:53.185Z,3.75
2023-05-12T05:18:58.273Z,4.40
2023-05-12T05:22:01.412Z,3.93
2023-05-12T05:25:04.195Z,3.58
2023-05-12T05:28:08.827Z,4.35
2023-05-12T05:31:17.246Z,3.78
2023-05-12T05:34:19.956Z,4.40
2023-05-12T05:37:23.276Z,3.90
2023-05-12T05:40:30.631Z,3.22
2023-05-12T05:43:38.315Z,3.35
2023-05-12T05:46:43.704Z,3.40
2023-05-12T05:49:48.760Z,3.90
2023-05-12T05:52:51.065Z,3.23
2023-05-12T05:55:53.440Z,3.80
2023-05-12T05:58:57.127Z,3.85
2023-05-12T06:01:59.700Z,2.78
2023-05-12T06:05:02.456Z,4.00
2023-05-12T06:08:05.459Z,3.67
2023-05-12T06:11:08.066Z,2.83
2023-05-12T06:14:11.619Z,3.50
2023-05-12T06:17:14.064Z,3.25
2023-05-12T06:20:16.538Z,5.63
2023-05-12T06:23:20.761Z,3.73
2023-05-12T06:26:23.047Z,2.10
2023-05-12T06:29:25.439Z,3.60
2023-05-12T06:32:27.884Z,2.75
2023-05-12T06:35:30.428Z,3.35
2023-05-12T06:38:32.746Z,4.13
2023-05-12T06:41:35.046Z,4.18
2023-05-12T06:44:42.125Z,3.90
2023-05-12T06:47:44.842Z,3.97
2023-05-12T06:50:47.221Z,3.90
2023-05-12T06:53:50.067Z,3.60
2023-05-12T06:56:53.189Z,4.05
2023-05-12T06:59:55.491Z,4.40
2023-05-12T07:02:57.762Z,3.33
2023-05-12T07:06:00.585Z,3.58
2023-05-12T07:09:03.042Z,3.60
2023-05-12T07:12:05.699Z,4.00
2023-05-12T07:15:09.770Z,3.80
2023-05-12T07:18:12.133Z,3.67
2023-05-12T07:21:15.032Z,3.40
2023-05-12T07:24:17.654Z,3.40
2023-05-12T07:27:20.434Z,2.80
2023-05-12T07:30:23.138Z,3.28
2023-05-12T07:33:26.391Z,3.30
2023-05-12T07:36:29.157Z,4.00
2023-05-12T07:39:35.514Z,2.67
2023-05-12T07:42:38.267Z,2.38
2023-05-12T07:45:41.353Z,3.00
2023-05-12T07:48:43.923Z,2.50
2023-05-12T07:51:46.312Z,3.30
2023-05-12T07:54:49.100Z,3.97
2023-05-12T07:57:51.514Z,3.70
2023-05-12T08:00:54.722Z,2.80
2023-05-12T08:03:57.225Z,3.35
2023-05-12T08:06:59.716Z,3.70
2023-05-12T08:10:06.617Z,3.73
2023-05-12T08:13:09.826Z,3.70
2023-05-12T08:16:12.195Z,3.88
2023-05-12T08:19:15.186Z,2.92
2023-05-12T08:22:17.631Z,3.70
2023-05-12T08:25:20.200Z,2.23
2023-05-12T08:28:27.493Z,3.33
2023-05-12T08:31:29.911Z,2.58
2023-05-12T08:34:32.821Z,2.55
2023-05-12T08:37:36.062Z,2.80
2023-05-12T08:40:45.187Z,3.57
2023-05-12T08:43:52.121Z,3.55
2023-05-12T08:46:57.407Z,4.03
2023-05-12T08:50:04.901Z,3.08
2023-05-12T08:53:13.729Z,2.92
2023-05-12T08:59:25.547Z,4.10
2023-05-12T09:02:37.598Z,3.72
2023-05-12T09:05:44.491Z,4.60
2023-05-12T09:08:47.144Z,3.50
2023-05-12T09:11:53.287Z,3.83
2023-05-12T09:15:08.479Z,3.40
2023-05-12T09:18:10.997Z,3.58
2023-05-12T09:21:13.998Z,4.00
2023-05-12T09:24:16.623Z,3.65
2023-05-12T09:27:28.282Z,3.60
2023-05-12T09:30:32.215Z,4.00
2023-05-12T09:33:36.193Z,3.28
2023-05-12T09:36:38.431Z,3.70
2023-05-12T09:39:40.700Z,3.55
2023-05-12T09:42:43.744Z,4.87
2023-05-12T09:45:47.733Z,3.50
2023-05-12T09:48:50.358Z,4.13
2023-05-12T09:51:54.336Z,3.67
2023-05-12T09:54:56.613Z,5.20
2023-05-12T09:58:01.507Z,5.20
2023-05-12T10:04:10.447Z,4.07
2023-05-12T10:07:14.300Z,4.85
2023-05-12T10:10:19.796Z,5.78
2023-05-12T10:13:23.148Z,4.53
2023-05-12T10:16:28.492Z,4.57
2023-05-12T10:19:31.106Z,5.93
2023-05-12T10:22:40.377Z,5.53
2023-05-12T10:25:44.239Z,6.72
2023-05-12T10:28:47.261Z,6.80
2023-05-12T10:31:50.176Z,6.18
2023-05-12T10:34:52.906Z,7.10
2023-05-12T10:37:55.281Z,7.70
2023-05-12T10:41:03.172Z,5.10
2023-05-12T10:44:06.128Z,7.60
2023-05-12T10:47:19.129Z,7.30
2023-05-12T10:50:31.328Z,6.60
2023-05-12T10:53:49.845Z,7.05
2023-05-12T10:57:00.117Z,6.15
2023-05-12T11:00:04.260Z,7.43
2023-05-12T11:03:13.214Z,9.02
2023-05-12T11:06:19.695Z,7.55
2023-05-12T11:09:22.581Z,11.27
2023-05-12T11:12:27.356Z,9.55
2023-05-12T11:15:30.251Z,9.30
2023-05-12T11:18:32.555Z,7.50
2023-05-12T11:21:35.389Z,9.30
2023-05-12T11:24:39.369Z,8.68
2023-05-12T11:27:47.568Z,5.35
2023-05-12T11:30:54.549Z,7.50
2023-05-12T11:34:13.144Z,6.88
2023-05-12T11:37:16.078Z,7.85
2023-05-12T11:40:21.122Z,7.68
2023-05-12T11:43:23.454Z,8.10
2023-05-12T11:46:29.999Z,6.73
2023-05-12T11:49:32.899Z,7.15
2023-05-12T11:52:35.323Z,8.07
2023-05-12T11:55:37.912Z,8.40
2023-05-12T11:58:40.306Z,7.57
2023-05-12T12:01:46.789Z,6.43
2023-05-12T12:04:49.378Z,8.73
2023-05-12T12:07:51.888Z,8.05
2023-05-12T12:10:54.243Z,7.80
2023-05-12T12:13:57.032Z,8.18
2023-05-12T12:17:00.436Z,8.77
2023-05-12T12:20:03.647Z,8.30
2023-05-12T12:23:05.960Z,7.57
2023-05-12T12:26:08.341Z,7.63
2023-05-12T12:29:10.731Z,6.60
2023-05-12T12:32:13.107Z,6.57
2023-05-12T12:35:18.245Z,6.25
2023-05-12T12:38:20.925Z,5.97
2023-05-12T12:41:25.998Z,6.82
2023-05-12T12:44:28.341Z,5.53
2023-05-12T12:47:31.691Z,5.77
2023-05-12T12:50:35.826Z,6.07
2023-05-12T12:53:38.447Z,6.20
2023-05-12T12:56:40.908Z,6.18
2023-05-12T12:59:43.164Z,5.22
2023-05-12T13:02:45.708Z,4.27
2023-05-12T13:05:48.304Z,4.28
2023-05-12T13:08:50.741Z,4.93
2023-05-12T13:11:54.308Z,4.88
2023-05-12T13:14:57.007Z,4.38
2023-05-12T13:17:59.629Z,5.47
2023-05-12T13:21:02.199Z,3.65
2023-05-12T13:24:04.539Z,4.68
2023-05-12T13:27:08.464Z,4.65
2023-05-12T13:30:13.362Z,4.57
2023-05-12T13:33:16.299Z,4.67
2023-05-12T13:36:18.656Z,4.28
2023-05-12T13:39:23.146Z,4.18
2023-05-12T13:42:25.931Z,3.28
2023-05-12T13:45:28.323Z,3.80
2023-05-12T13:48:30.570Z,4.73
2023-05-12T13:51:32.806Z,5.45
2023-05-12T13:54:35.075Z,5.28
2023-05-12T13:57:37.362Z,5.00
2023-05-12T14:00:39.714Z,4.40
2023-05-12T14:03:42.668Z,4.43
2023-05-12T14:06:45.968Z,5.80
2023-05-12T14:09:48.467Z,4.90
2023-05-12T14:12:50.774Z,5.05
2023-05-12T14:15:53.976Z,5.30
2023-05-12T14:18:56.926Z,5.43
2023-05-12T14:21:59.526Z,5.40
2023-05-12T14:25:01.864Z,5.40
2023-05-12T14:28:04.385Z,4.78
2023-05-12T14:31:06.842Z,6.70
2023-05-12T14:34:11.247Z,5.40
2023-05-12T14:37:13.625Z,7.03
2023-05-12T14:40:16.088Z,6.50
2023-05-12T14:43:18.767Z,5.40
2023-05-12T14:46:21.105Z,6.90
2023-05-12T14:49:23.423Z,4.43
2023-05-12T14:52:25.692Z,5.40
2023-05-12T14:55:29.865Z,6.43
2023-05-12T14:58:32.226Z,6.32
2023-05-12T15:01:34.578Z,5.05
2023-05-12T15:04:39.729Z,5.37
2023-05-12T15:07:42.199Z,5.93
2023-05-12T15:10:44.743Z,5.10
2023-05-12T15:13:47.241Z,5.45
2023-05-12T15:16:49.535Z,5.00
2023-05-12T15:19:52.115Z,4.33
2023-05-12T15:22:54.564Z,5.90
2023-05-12T15:25:58.036Z,4.32
2023-05-12T15:29:00.578Z,4.75
2023-05-12T15:32:03.487Z,5.60
2023-05-12T15:35:12.725Z,5.83
2023-05-12T15:38:19.578Z,5.70
2023-05-12T15:41:25.375Z,5.13
2023-05-12T15:44:27.913Z,4.82
2023-05-12T15:47:30.494Z,5.18
2023-05-12T15:50:33.414Z,6.00
2023-05-12T15:53:36.321Z,5.03
2023-05-12T15:56:39.051Z,5.78
2023-05-12T15:59:44.339Z,5.57
2023-05-12T16:02:46.702Z,6.35
2023-05-12T16:05:49.352Z,5.47
2023-05-12T16:08:51.786Z,6.53
2023-05-12T16:11:57.290Z,7.10
2023-05-12T16:14:59.530Z,6.45
2023-05-12T16:18:01.920Z,5.45
2023-05-12T16:21:04.672Z,5.23
2023-05-12T16:24:08.908Z,5.53
2023-05-12T16:27:11.507Z,5.22
2023-05-12T16:30:14.434Z,3.58
2023-05-12T16:33:16.767Z,4.70
2023-05-12T16:36:19.771Z,5.20
2023-05-12T16:39:24.945Z,3.45
2023-05-12T16:42:27.268Z,3.20
2023-05-12T16:45:29.666Z,4.80
2023-05-12T16:48:35.230Z,6.00
2023-05-12T16:51:38.901Z,4.93
2023-05-12T16:54:42.287Z,5.97
2023-05-12T16:57:44.656Z,5.82
2023-05-12T17:00:46.893Z,6.28
2023-05-12T17:03:49.319Z,6.50
2023-05-12T17:06:51.816Z,6.43
2023-05-12T17:09:54.161Z,6.60
2023-05-12T17:12:56.651Z,6.13
2023-05-12T17:15:59.002Z,6.28
2023-05-12T17:22:06.434Z,6.13
2023-05-12T17:25:12.010Z,6.13
2023-05-12T17:28:14.399Z,6.80
2023-05-12T17:31:16.728Z,7.13
2023-05-12T17:34:19.058Z,6.93
2023-05-12T17:37:21.339Z,6.17
2023-05-12T17:40:23.601Z,4.07
2023-05-12T17:43:25.948Z,4.25
2023-05-12T17:46:28.337Z,6.20
2023-05-12T17:49:30.707Z,4.60
2023-05-12T17:52:33.044Z,6.60
2023-05-12T17:55:35.421Z,5.30
2023-05-12T17:58:37.751Z,5.38
2023-05-12T18:01:40.449Z,5.72
2023-05-12T18:04:42.747Z,3.80
2023-05-12T18:07:45.170Z,5.43
2023-05-12T18:10:47.605Z,4.75
2023-05-12T18:13:51.948Z,6.90
2023-05-12T18:16:54.897Z,7.40
2023-05-12T18:19:57.211Z,6.22
2023-05-12T18:22:59.478Z,7.07
2023-05-12T18:26:01.762Z,6.05
2023-05-12T18:29:04.244Z,7.10
2023-05-12T18:32:07.007Z,7.63
2023-05-12T18:35:09.580Z,7.95
2023-05-12T18:38:11.849Z,8.10
2023-05-12T18:41:14.236Z,7.38
2023-05-12T18:44:17.323Z,8.00
2023-05-12T18:47:20.284Z,8.38
2023-05-12T18:50:22.613Z,8.10
2023-05-12T18:53:24.962Z,9.17
2023-05-12T18:56:27.389Z,8.55
2023-05-12T18:59:29.709Z,7.00
2023-05-12T19:02:32.096Z,7.95
2023-05-12T19:05:34.882Z,8.63
2023-05-12T19:08:37.264Z,7.37
2023-05-12T19:11:40.156Z,7.05
2023-05-12T19:14:43.333Z,8.00
2023-05-12T19:17:45.757Z,6.50
2023-05-12T19:20:48.473Z,6.30
2023-05-12T19:23:50.941Z,5.60
2023-05-12T19:26:53.299Z,5.90
2023-05-12T19:29:55.562Z,6.32
2023-05-12T19:32:58.013Z,7.20
2023-05-12T19:36:00.488Z,6.97
2023-05-12T19:39:03.271Z,5.50
2023-05-12T19:42:05.791Z,7.72
2023-05-12T19:45:09.484Z,7.22
2023-05-12T19:48:11.875Z,7.80
2023-05-12T19:51:14.379Z,9.02
2023-05-12T19:54:16.659Z,8.40
2023-05-12T19:57:19.887Z,5.97
2023-05-12T20:00:22.286Z,7.45
2023-05-12T20:03:24.761Z,7.95
2023-05-12T20:06:27.161Z,7.90
2023-05-12T20:09:29.510Z,6.60
2023-05-12T20:12:31.766Z,7.28
2023-05-12T20:15:34.415Z,7.97
2023-05-12T20:18:36.690Z,8.27
2023-05-12T20:21:39.022Z,7.47
2023-05-12T20:24:41.329Z,8.47
2023-05-12T20:27:43.971Z,7.72
2023-05-12T20:30:46.620Z,8.32
2023-05-12T20:33:48.925Z,8.50
2023-05-12T20:36:51.178Z,8.60
2023-05-12T20:39:54.095Z,8.70
2023-05-12T20:42:56.526Z,9.15
2023-05-12T20:45:58.993Z,8.95
2023-05-12T20:49:03.173Z,9.15
2023-05-12T20:52:06.531Z,9.25
2023-05-12T20:55:09.867Z,8.50
2023-05-12T20:58:12.128Z,9.02
2023-05-12T21:01:14.451Z,9.18
2023-05-12T21:04:17.482Z,9.25
2023-05-12T21:07:20.387Z,8.95
2023-05-12T21:10:23.011Z,8.40
2023-05-12T21:13:25.846Z,8.82
2023-05-12T21:16:28.521Z,9.20
2023-05-12T21:19:31.802Z,9.30
2023-05-12T21:22:34.204Z,9.70
2023-05-12T21:25:36.487Z,8.40
2023-05-12T21:28:38.752Z,9.45
2023-05-12T21:31:41.456Z,9.10
2023-05-12T21:34:45.484Z,9.50
2023-05-12T21:37:49.643Z,9.60
2023-05-12T21:40:52.683Z,10.07
2023-05-12T21:43:54.938Z,10.07
2023-05-12T21:46:58.741Z,8.95
2023-05-12T21:50:01.181Z,9.20
2023-05-12T21:53:03.539Z,9.27
2023-05-12T21:56:06.331Z,9.30
2023-05-12T21:59:09.230Z,8.80
2023-05-12T22:02:11.500Z,8.98
2023-05-12T22:05:15.004Z,8.93
2023-05-12T22:08:17.669Z,8.77
2023-05-12T22:11:20.072Z,9.57
2023-05-12T22:14:22.403Z,9.30
2023-05-12T22:17:24.728Z,10.30
2023-05-12T22:20:27.661Z,9.00
2023-05-12T22:23:29.935Z,10.10
2023-05-12T22:26:32.876Z,9.87
2023-05-12T22:29:35.176Z,9.95
2023-05-12T22:32:37.615Z,10.07
2023-05-12T22:35:39.921Z,9.02
2023-05-12T22:38:42.178Z,9.57
2023-05-12T22:41:44.521Z,10.17
2023-05-12T22:44:46.780Z,9.73
2023-05-12T22:47:49.154Z,9.25
2023-05-12T22:50:54.506Z,8.00
2023-05-12T22:53:56.775Z,8.55
2023-05-12T22:56:59.045Z,7.73
2023-05-12T23:00:01.293Z,7.05
2023-05-12T23:03:04.118Z,7.55
2023-05-12T23:06:06.559Z,6.13
2023-05-12T23:09:09.576Z,5.57
2023-05-12T23:12:11.859Z,5.77
2023-05-12T23:15:14.106Z,6.65
2023-05-12T23:18:16.371Z,7.05
2023-05-12T23:21:18.584Z,7.88
2023-05-12T23:24:21.742Z,7.10
2023-05-12T23:27:25.555Z,6.43
2023-05-12T23:30:31.915Z,6.97
2023-05-12T23:33:34.436Z,6.45
2023-05-12T23:36:36.793Z,7.28
2023-05-12T23:39:39.024Z,7.75
2023-05-12T23:42:41.508Z,7.63
2023-05-12T23:45:43.818Z,8.02
2023-05-12T23:48:46.105Z,8.13
2023-05-12T23:51:48.381Z,8.35
2023-05-12T23:54:50.620Z,7.38
2023-05-12T23:57:52.931Z,7.20
